Time;durP1;ratioP1;P1;durP2;ratioP2;P2;SDS_P1;SDS_P2;PMS_P1;PMS_P2;Temp;Humidity;BMP_temperature;BMP_pressure;BME280_temperature;BME280_humidity;BME280_pressure;Samples;Min_cycle;Max_cycle;Signal;HPM_P1;HPM_P2
2023/10/04 00:00:19;;;;;;;10.00;4.53;;;25.00;99.90;;;;;;5051258;28;20051;-51
2023/10/04 00:02:49;;;;;;;8.95;4.85;;;25.00;99.90;;;;;;5003669;28;20034;-50
2023/10/04 00:05:21;;;;;;;9.77;4.93;;;25.00;99.90;;;;;;5031202;28;20031;-51
2023/10/04 00:07:51;;;;;;;6.72;4.40;;;25.00;99.90;;;;;;5033002;28;20018;-50
2023/10/04 00:10:18;;;;;;;11.10;5.32;;;25.00;99.90;;;;;;5033304;28;20025;-51
2023/10/04 00:12:45;;;;;;;7.50;4.75;;;25.00;99.90;;;;;;5033329;28;20010;-50
2023/10/04 00:15:12;;;;;;;9.43;4.32;;;24.90;99.90;;;;;;5033124;28;20041;-50
2023/10/04 00:17:42;;;;;;;8.85;5.45;;;24.90;99.90;;;;;;5033374;28;20029;-50
2023/10/04 00:20:17;;;;;;;11.45;5.65;;;24.90;99.90;;;;;;5033442;28;20486;-51
2023/10/04 00:22:46;;;;;;;10.60;5.50;;;24.80;99.90;;;;;;5032998;28;20056;-51
2023/10/04 00:25:20;;;;;;;8.57;5.28;;;24.80;99.90;;;;;;5033183;28;20025;-51
2023/10/04 00:27:47;;;;;;;7.60;4.97;;;24.80;99.90;;;;;;5032778;28;20036;-51
2023/10/04 00:30:18;;;;;;;11.55;5.22;;;24.70;99.90;;;;;;5032965;28;20026;-51
2023/10/04 00:32:46;;;;;;;13.32;5.32;;;24.70;99.90;;;;;;5032768;28;20025;-51
2023/10/04 00:35:17;;;;;;;9.20;4.68;;;24.70;99.90;;;;;;5032844;28;20034;-51
2023/10/04 00:37:44;;;;;;;11.35;5.35;;;24.70;99.90;;;;;;5032669;28;20018;-50
2023/10/04 00:40:18;;;;;;;11.38;5.65;;;24.70;99.90;;;;;;5032913;28;20078;-51
2023/10/04 00:42:47;;;;;;;8.18;5.28;;;24.70;99.90;;;;;;5032672;28;20477;-51
2023/10/04 00:45:13;;;;;;;10.50;4.88;;;24.70;99.90;;;;;;5032619;28;20474;-51
2023/10/04 00:47:47;;;;;;;9.00;4.43;;;24.70;99.90;;;;;;5032533;28;20029;-52
2023/10/04 00:50:26;;;;;;;7.97;4.78;;;24.60;99.90;;;;;;5032575;28;20505;-51
2023/10/04 00:53:14;;;;;;;7.28;4.28;;;24.60;99.90;;;;;;5032249;28;20033;-51
2023/10/04 00:55:43;;;;;;;7.80;5.07;;;24.60;99.90;;;;;;5032441;28;20104;-51
2023/10/04 00:58:10;;;;;;;7.72;4.30;;;24.60;99.90;;;;;;5032618;28;20105;-52
2023/10/04 01:00:39;;;;;;;9.40;4.10;;;24.60;99.90;;;;;;5025999;23;22942;-50
2023/10/04 01:03:09;;;;;;;5.32;3.30;;;24.60;99.90;;;;;;5032424;28;20077;-51
2023/10/04 01:05:56;;;;;;;6.15;3.90;;;24.50;99.90;;;;;;5014906;28;20022;-51
2023/10/04 01:08:23;;;;;;;4.88;3.75;;;24.50;99.90;;;;;;5032286;28;20029;-51
2023/10/04 01:10:50;;;;;;;6.03;3.70;;;24.50;99.90;;;;;;5032067;28;20025;-49
2023/10/04 01:13:21;;;;;;;5.53;3.33;;;24.50;99.90;;;;;;5032248;28;20029;-50
2023/10/04 01:15:52;;;;;;;4.18;3.30;;;24.40;99.90;;;;;;5031826;28;20481;-50
2023/10/04 01:18:19;;;;;;;3.88;3.47;;;24.40;99.90;;;;;;5032333;28;20025;-50
2023/10/04 01:20:46;;;;;;;4.38;2.97;;;24.50;99.90;;;;;;5014157;28;20047;-51
2023/10/04 01:23:12;;;;;;;4.80;2.92;;;24.40;99.90;;;;;;5032184;28;20104;-51
2023/10/04 01:25:46;;;;;;;6.70;3.42;;;24.40;99.90;;;;;;5014421;28;20136;-50
2023/10/04 01:28:14;;;;;;;7.78;3.20;;;24.40;99.90;;;;;;5031985;28;20029;-50
2023/10/04 01:30:42;;;;;;;5.93;3.25;;;24.40;99.90;;;;;;5031792;28;20060;-50
2023/10/04 01:33:15;;;;;;;5.45;3.40;;;24.40;99.90;;;;;;5032023;28;20034;-50
2023/10/04 01:35:53;;;;;;;5.28;3.50;;;24.40;99.90;;;;;;5031966;28;20021;-50
2023/10/04 01:38:25;;;;;;;6.72;3.50;;;24.40;99.90;;;;;;5019424;28;20041;-50
2023/10/04 01:40:52;;;;;;;4.80;3.42;;;24.30;99.90;;;;;;5031625;28;20030;-51
2023/10/04 01:43:19;;;;;;;7.53;3.60;;;24.30;99.90;;;;;;5031909;28;20025;-50
2023/10/04 01:45:53;;;;;;;4.03;3.58;;;24.30;99.90;;;;;;5031797;28;20021;-50
2023/10/04 01:48:20;;;;;;;3.70;3.33;;;24.30;99.90;;;;;;5014100;28;20377;-50
2023/10/04 01:50:52;;;;;;;7.03;3.83;;;24.30;99.90;;;;;;5031728;28;20021;-50
2023/10/04 01:53:23;;;;;;;4.72;3.63;;;24.30;99.90;;;;;;5031528;28;20521;-51
2023/10/04 01:55:49;;;;;;;5.65;3.47;;;24.30;99.90;;;;;;5031706;28;20018;-51
2023/10/04 01:58:18;;;;;;;10.88;3.67;;;24.30;99.90;;;;;;5031571;28;20060;-51
2023/10/04 02:00:43;;;;;;;4.82;3.60;;;24.30;99.90;;;;;;5043648;23;20041;-46
2023/10/04 02:03:09;;;;;;;6.82;3.65;;;24.30;99.90;;;;;;5031781;28;20022;-46
2023/10/04 02:05:40;;;;;;;5.18;3.70;;;24.30;99.90;;;;;;5031658;28;20139;-46
2023/10/04 02:08:08;;;;;;;6.80;4.28;;;24.30;99.90;;;;;;5032074;28;20105;-45
2023/10/04 02:10:34;;;;;;;5.22;4.10;;;24.30;99.90;;;;;;5031533;28;20078;-46
2023/10/04 02:13:00;;;;;;;4.38;3.47;;;24.30;99.90;;;;;;5031814;28;20041;-45
2023/10/04 02:15:26;;;;;;;7.40;3.92;;;24.30;99.90;;;;;;5031476;28;20436;-46
2023/10/04 02:17:53;;;;;;;4.68;4.13;;;24.30;99.90;;;;;;5031528;28;20018;-46
2023/10/04 02:20:28;;;;;;;6.57;4.55;;;24.30;99.90;;;;;;5031637;28;20033;-47
2023/10/04 02:22:57;;;;;;;6.50;3.95;;;24.20;99.90;;;;;;5018029;28;20022;-46
2023/10/04 02:25:24;;;;;;;6.65;4.53;;;24.20;99.90;;;;;;5031563;28;20021;-47
2023/10/04 02:27:52;;;;;;;4.65;4.15;;;24.20;99.90;;;;;;5034882;28;20458;-46
2023/10/04 02:30:23;;;;;;;4.22;3.83;;;24.30;99.90;;;;;;5035445;28;20120;-46
2023/10/04 02:32:53;;;;;;;5.22;4.05;;;24.20;99.90;;;;;;5035170;28;20071;-46
2023/10/04 02:36:06;;;;;;;9.23;4.10;;;24.20;99.90;;;;;;5034990;28;20034;-45
2023/10/04 02:38:09;;;;;;;7.38;5.00;;;24.20;99.90;;;;;;5028066;28;20036;-46
2023/10/04 02:40:37;;;;;;;4.40;3.88;;;24.20;99.90;;;;;;5035433;28;20025;-47
2023/10/04 02:43:04;;;;;;;6.57;4.53;;;24.20;99.90;;;;;;5035094;28;20433;-46
2023/10/04 02:45:30;;;;;;;8.10;4.85;;;24.20;99.90;;;;;;5035004;28;20037;-46
2023/10/04 02:47:56;;;;;;;6.95;4.50;;;24.20;99.90;;;;;;5034960;28;20377;-46
2023/10/04 02:50:23;;;;;;;5.32;3.88;;;24.20;99.90;;;;;;5034787;28;20071;-46
2023/10/04 02:52:52;;;;;;;4.55;4.13;;;24.10;99.90;;;;;;5034708;28;20470;-45
2023/10/04 02:55:18;;;;;;;6.85;4.35;;;24.10;99.90;;;;;;5034742;28;20124;-46
2023/10/04 02:57:51;;;;;;;7.07;4.85;;;24.10;99.90;;;;;;5031392;28;20064;-46
2023/10/04 03:02:48;;;;;;;8.80;5.10;;;24.10;99.90;;;;;;5052794;28;20057;-50
2023/10/04 03:05:18;;;;;;;6.50;4.65;;;24.10;99.90;;;;;;5054320;28;20104;-51
2023/10/04 03:07:44;;;;;;;6.63;4.60;;;24.10;99.90;;;;;;5054725;28;20029;-51
2023/10/04 03:10:11;;;;;;;7.55;5.47;;;24.20;99.90;;;;;;5036919;28;20056;-51
2023/10/04 03:12:38;;;;;;;8.63;5.63;;;24.10;99.90;;;;;;5054491;28;20013;-51
2023/10/04 03:15:05;;;;;;;7.35;5.15;;;24.10;99.90;;;;;;5054404;28;20037;-52
2023/10/04 03:17:31;;;;;;;8.95;5.93;;;24.10;99.90;;;;;;5054163;28;20495;-51
2023/10/04 03:19:57;;;;;;;8.40;6.10;;;24.10;99.90;;;;;;5054402;28;20047;-51
2023/10/04 03:22:23;;;;;;;11.13;5.72;;;24.20;99.90;;;;;;5054165;28;20025;-51
2023/10/04 03:24:53;;;;;;;7.53;5.13;;;24.20;99.90;;;;;;5054132;28;20432;-52
2023/10/04 03:27:21;;;;;;;9.07;6.00;;;24.20;99.90;;;;;;5054067;28;20381;-51
2023/10/04 03:29:53;;;;;;;8.00;6.85;;;24.20;99.90;;;;;;5054058;28;20416;-52
2023/10/04 03:32:19;;;;;;;8.48;7.03;;;24.20;99.90;;;;;;5054151;28;20139;-52
2023/10/04 03:34:45;;;;;;;11.95;7.35;;;24.20;99.90;;;;;;5053988;28;20045;-51
2023/10/04 03:37:14;;;;;;;9.88;7.85;;;24.20;99.90;;;;;;5053687;28;20021;-52
2023/10/04 03:39:40;;;;;;;12.82;7.97;;;24.20;99.90;;;;;;5053781;28;20021;-52
2023/10/04 03:42:06;;;;;;;17.50;7.88;;;24.20;99.90;;;;;;5054089;28;20350;-51
2023/10/04 03:44:32;;;;;;;12.30;9.10;;;24.20;99.90;;;;;;5053610;28;20108;-51
2023/10/04 03:46:58;;;;;;;13.80;9.02;;;24.30;99.90;;;;;;5053824;28;20377;-50
2023/10/04 03:49:25;;;;;;;10.82;9.73;;;24.30;99.90;;;;;;5053769;28;20048;-51
2023/10/04 03:51:53;;;;;;;12.32;8.52;;;24.30;99.90;;;;;;5053746;28;20370;-51
2023/10/04 03:54:19;;;;;;;13.18;10.23;;;24.30;99.90;;;;;;5053576;28;20033;-51
2023/10/04 03:56:45;;;;;;;12.80;9.90;;;24.30;99.90;;;;;;5053501;28;20017;-50
2023/10/04 03:59:11;;;;;;;14.60;10.25;;;24.30;99.90;;;;;;5053642;28;20401;-51
2023/10/04 04:01:38;;;;;;;15.68;11.23;;;24.30;99.90;;;;;;5053940;28;20036;-51
2023/10/04 04:04:04;;;;;;;15.07;11.02;;;24.30;99.90;;;;;;5053549;28;20369;-51
2023/10/04 04:06:31;;;;;;;15.40;10.98;;;24.30;99.90;;;;;;5053314;28;20377;-51
2023/10/04 04:08:59;;;;;;;19.80;12.10;;;24.30;99.90;;;;;;5053179;28;20036;-51
2023/10/04 04:11:25;;;;;;;11.00;9.88;;;24.30;99.90;;;;;;5053321;28;20013;-51
2023/10/04 04:13:51;;;;;;;12.10;10.75;;;24.30;99.90;;;;;;5052951;28;20033;-51
2023/10/04 04:16:17;;;;;;;14.10;10.00;;;24.30;99.90;;;;;;5035284;28;20035;-51
2023/10/04 04:18:44;;;;;;;11.73;9.15;;;24.30;99.90;;;;;;5053195;28;20062;-50
2023/10/04 04:21:10;;;;;;;12.85;9.75;;;24.30;99.90;;;;;;5053348;28;20480;-51
2023/10/04 04:23:36;;;;;;;12.48;10.57;;;24.30;99.90;;;;;;5053399;28;20043;-52
2023/10/04 04:26:05;;;;;;;12.70;10.88;;;24.30;99.90;;;;;;5052992;28;20104;-51
2023/10/04 04:28:35;;;;;;;14.27;10.02;;;24.30;99.90;;;;;;5052976;28;20070;-51
2023/10/04 04:31:05;;;;;;;16.45;10.70;;;24.40;99.90;;;;;;5052861;28;20043;-50
2023/10/04 04:33:31;;;;;;;14.02;10.88;;;24.40;99.90;;;;;;5035665;28;20033;-51
2023/10/04 04:36:10;;;;;;;11.07;9.93;;;24.30;99.90;;;;;;5052756;28;20489;-51
2023/10/04 04:38:38;;;;;;;13.93;10.48;;;24.30;99.90;;;;;;5052488;28;20084;-50
2023/10/04 04:41:11;;;;;;;17.13;9.77;;;24.40;99.90;;;;;;5052293;28;20021;-51
2023/10/04 04:43:38;;;;;;;13.13;10.98;;;24.40;99.90;;;;;;5052502;28;20041;-52
2023/10/04 04:46:13;;;;;;;13.57;11.23;;;24.40;99.90;;;;;;5052144;28;20029;-51
2023/10/04 04:48:40;;;;;;;19.25;11.52;;;24.40;99.90;;;;;;5051988;28;20029;-51
2023/10/04 04:51:15;;;;;;;13.38;11.25;;;24.40;99.90;;;;;;5052269;28;20021;-51
2023/10/04 04:53:42;;;;;;;14.90;12.30;;;24.40;99.90;;;;;;5027684;28;20437;-51
2023/10/04 04:56:14;;;;;;;15.93;12.07;;;24.30;99.90;;;;;;5046763;28;20032;-50
2023/10/04 04:58:41;;;;;;;16.27;12.77;;;24.30;99.90;;;;;;5052283;28;20025;-51
2023/10/04 05:01:13;;;;;;;20.17;12.20;;;24.40;99.90;;;;;;5043366;28;20045;-51
2023/10/04 05:03:45;;;;;;;11.65;10.43;;;24.30;99.90;;;;;;5037927;28;20090;-51
2023/10/04 05:06:46;;;;;;;15.65;11.52;;;24.40;99.90;;;;;;5051173;28;20097;-51
2023/10/04 05:09:05;;;;;;;13.05;11.40;;;24.40;99.90;;;;;;5047376;28;20073;-51
2023/10/04 05:11:31;;;;;;;13.27;11.95;;;24.40;99.90;;;;;;5051386;28;20067;-51
2023/10/04 05:13:58;;;;;;;15.50;12.55;;;24.40;99.90;;;;;;5051882;28;20036;-51
2023/10/04 05:16:27;;;;;;;13.77;12.35;;;24.40;99.90;;;;;;5052172;28;20036;-51
2023/10/04 05:18:53;;;;;;;15.10;13.60;;;24.50;99.90;;;;;;5034194;28;20420;-51
2023/10/04 05:21:19;;;;;;;16.33;14.60;;;24.50;99.90;;;;;;5052200;28;20380;-51
2023/10/04 05:23:45;;;;;;;17.50;13.82;;;24.50;99.90;;;;;;5052035;28;20254;-51
2023/10/04 05:26:12;;;;;;;17.35;13.73;;;24.50;99.90;;;;;;5051793;28;20154;-51
2023/10/04 05:28:38;;;;;;;18.90;14.27;;;24.50;99.90;;;;;;5052078;28;20381;-51
2023/10/04 05:31:04;;;;;;;16.95;13.93;;;24.50;99.90;;;;;;5051684;28;20025;-51
2023/10/04 05:33:30;;;;;;;21.02;15.82;;;24.50;99.90;;;;;;5051832;28;20228;-51
2023/10/04 05:35:56;;;;;;;20.90;15.88;;;24.50;99.90;;;;;;5051767;28;20096;-51
2023/10/04 05:38:23;;;;;;;21.15;17.25;;;24.50;99.90;;;;;;5051777;28;20144;-51
2023/10/04 05:40:49;;;;;;;17.27;15.48;;;24.50;99.90;;;;;;5051731;28;20065;-51
2023/10/04 05:43:16;;;;;;;19.67;15.90;;;24.50;99.90;;;;;;5051752;28;20432;-50
2023/10/04 05:45:44;;;;;;;23.27;16.10;;;24.50;99.90;;;;;;5051939;28;20484;-51
2023/10/04 05:48:10;;;;;;;21.63;15.85;;;24.50;99.90;;;;;;5051558;28;20026;-51
2023/10/04 05:50:37;;;;;;;17.50;15.50;;;24.40;99.90;;;;;;5052060;28;20109;-51
2023/10/04 05:53:09;;;;;;;17.65;15.60;;;24.50;99.90;;;;;;5051484;28;20257;-51
2023/10/04 05:55:37;;;;;;;20.85;15.85;;;24.50;99.90;;;;;;5033941;28;20025;-51
2023/10/04 05:58:07;;;;;;;20.67;15.32;;;24.50;99.90;;;;;;5051451;28;20025;-51
2023/10/04 06:00:46;;;;;;;17.60;15.77;;;24.50;99.90;;;;;;5051451;28;20052;-51
2023/10/04 06:03:13;;;;;;;17.38;14.57;;;24.50;99.90;;;;;;5055386;28;20116;-51
2023/10/04 06:05:42;;;;;;;17.48;15.27;;;24.50;99.90;;;;;;5055865;28;20404;-52
2023/10/04 06:08:18;;;;;;;18.27;14.63;;;24.50;99.90;;;;;;5055768;28;20068;-52
2023/10/04 06:10:44;;;;;;;15.13;12.73;;;24.50;99.90;;;;;;5055486;28;20043;-51
2023/10/04 06:13:13;;;;;;;18.67;12.82;;;24.50;99.90;;;;;;5055479;28;20178;-53
2023/10/04 06:15:47;;;;;;;17.75;12.30;;;24.50;99.90;;;;;;5055618;28;20047;-52
2023/10/04 06:18:14;;;;;;;15.13;12.05;;;24.50;99.90;;;;;;5055434;28;20092;-52
2023/10/04 06:20:40;;;;;;;15.68;12.73;;;24.50;99.90;;;;;;5055227;28;20079;-51
2023/10/04 06:23:11;;;;;;;16.07;11.93;;;24.50;99.90;;;;;;5055590;28;20021;-52
2023/10/04 06:25:46;;;;;;;16.30;12.82;;;24.50;99.90;;;;;;5055395;28;20025;-52
2023/10/04 06:28:13;;;;;;;15.48;12.40;;;24.60;99.90;;;;;;5055214;28;20052;-51
2023/10/04 06:30:40;;;;;;;13.82;12.10;;;24.60;99.90;;;;;;5055382;28;20103;-52
2023/10/04 06:33:09;;;;;;;17.27;10.98;;;24.60;99.90;;;;;;5055250;28;20063;-52
2023/10/04 06:35:37;;;;;;;17.50;10.25;;;24.60;99.90;;;;;;5055353;28;20477;-51
2023/10/04 06:38:07;;;;;;;13.15;9.77;;;24.60;99.90;;;;;;5054774;28;20039;-52
2023/10/04 06:40:35;;;;;;;16.38;9.93;;;24.60;99.90;;;;;;5037106;28;20025;-52
2023/10/04 06:43:06;;;;;;;15.80;10.40;;;24.60;99.90;;;;;;5054871;28;20044;-52
2023/10/04 06:45:34;;;;;;;15.18;10.20;;;24.60;99.90;;;;;;5054929;28;20529;-52
2023/10/04 06:48:01;;;;;;;20.25;10.60;;;24.60;99.90;;;;;;5054636;28;20025;-52
2023/10/04 06:50:32;;;;;;;14.93;9.85;;;24.60;99.90;;;;;;5054768;28;20528;-51
2023/10/04 06:53:01;;;;;;;12.02;8.82;;;24.60;99.90;;;;;;5054608;28;20021;-52
2023/10/04 06:55:27;;;;;;;14.07;9.18;;;24.70;99.90;;;;;;5054650;28;20048;-52
2023/10/04 06:57:55;;;;;;;30.60;9.18;;;24.60;99.90;;;;;;5054577;28;20036;-51
2023/10/04 07:00:23;;;;;;;19.73;10.82;;;24.60;99.90;;;;;;5054554;28;20029;-51
2023/10/04 07:03:26;;;;;;;16.02;8.35;;;24.60;99.90;;;;;;5054674;28;20385;-51
2023/10/04 07:05:43;;;;;;;11.02;8.65;;;24.70;99.90;;;;;;5049532;28;20029;-51
2023/10/04 07:08:16;;;;;;;12.70;8.82;;;24.70;99.90;;;;;;5054554;28;20492;-51
2023/10/04 07:10:43;;;;;;;11.27;7.55;;;24.70;99.90;;;;;;5054015;28;20037;-51
2023/10/04 07:13:09;;;;;;;15.10;8.95;;;24.70;99.90;;;;;;5053931;28;20013;-51
2023/10/04 07:15:35;;;;;;;14.70;9.45;;;24.70;99.90;;;;;;5054353;28;20063;-50
2023/10/04 07:18:06;;;;;;;16.33;8.68;;;24.70;99.90;;;;;;5054307;28;20036;-50
2023/10/04 07:20:33;;;;;;;14.02;8.48;;;24.70;99.90;;;;;;5054066;28;20021;-52
2023/10/04 07:23:03;;;;;;;18.85;8.75;;;24.70;99.90;;;;;;5054253;28;20021;-52
2023/10/04 07:25:34;;;;;;;15.52;9.07;;;24.80;99.90;;;;;;5054155;28;20067;-51
2023/10/04 07:28:03;;;;;;;14.20;8.88;;;24.80;99.90;;;;;;5036300;28;20500;-51
2023/10/04 07:30:30;;;;;;;13.18;8.90;;;24.80;99.90;;;;;;5053922;28;20052;-51
2023/10/04 07:32:59;;;;;;;12.13;9.02;;;24.80;99.90;;;;;;5053882;28;20025;-51
2023/10/04 07:35:25;;;;;;;13.52;9.07;;;24.80;99.90;;;;;;5053883;28;20083;-52
2023/10/04 07:37:52;;;;;;;20.02;8.77;;;24.80;99.90;;;;;;5053750;28;20021;-51
2023/10/04 07:40:22;;;;;;;14.50;8.77;;;24.90;99.90;;;;;;5035778;28;20025;-51
2023/10/04 07:42:52;;;;;;;11.88;7.63;;;24.90;99.90;;;;;;5053606;28;20051;-52
2023/10/04 07:45:18;;;;;;;15.05;8.32;;;24.90;99.90;;;;;;5053736;28;20029;-51
2023/10/04 07:47:45;;;;;;;20.73;7.90;;;24.90;99.90;;;;;;5053550;28;20401;-51
2023/10/04 07:50:15;;;;;;;11.18;7.95;;;25.00;99.90;;;;;;5053615;28;20035;-51
2023/10/04 07:52:42;;;;;;;14.60;8.05;;;25.00;99.90;;;;;;5053623;28;20028;-51
2023/10/04 07:55:17;;;;;;;;;;;25.00;99.90;;;;;;5036095;28;20036;-51
2023/10/04 07:57:50;;;;;;;12.38;6.90;;;25.00;99.90;;;;;;5053511;28;19912;-50
2023/10/04 08:00:17;;;;;;;10.88;6.93;;;25.00;99.90;;;;;;5053457;28;20063;-50
2023/10/04 08:02:51;;;;;;;11.90;6.47;;;25.10;99.90;;;;;;5053215;28;20091;-52
2023/10/04 08:05:23;;;;;;;16.27;6.43;;;25.10;99.90;;;;;;5053052;28;20468;-51
2023/10/04 08:07:51;;;;;;;10.13;6.43;;;25.10;99.90;;;;;;5053315;28;20064;-51
2023/10/04 08:10:17;;;;;;;9.18;6.32;;;25.20;99.90;;;;;;5035434;28;20028;-51
2023/10/04 08:12:45;;;;;;;15.20;6.65;;;25.20;99.90;;;;;;5053299;28;20028;-51
2023/10/04 08:15:15;;;;;;;14.35;6.95;;;25.20;99.90;;;;;;5053003;28;20029;-51
2023/10/04 08:17:43;;;;;;;10.18;8.15;;;25.30;99.90;;;;;;5053114;28;20021;-51
2023/10/04 08:20:12;;;;;;;9.95;5.95;;;25.30;99.90;;;;;;5053416;28;20397;-51
2023/10/04 08:22:40;;;;;;;11.07;7.68;;;25.30;99.90;;;;;;5053130;28;20484;-51
2023/10/04 08:25:06;;;;;;;8.88;5.85;;;25.30;99.90;;;;;;5052281;28;20035;-51
2023/10/04 08:27:34;;;;;;;8.63;6.05;;;25.30;99.90;;;;;;5052861;28;20129;-51
2023/10/04 08:30:03;;;;;;;9.95;5.93;;;25.30;99.90;;;;;;5052886;28;20029;-51
2023/10/04 08:32:30;;;;;;;26.70;20.42;;;25.30;99.90;;;;;;5052610;28;20020;-51
2023/10/04 08:34:57;;;;;;;8.13;7.05;;;25.30;99.90;;;;;;5052720;28;20051;-51
2023/10/04 08:37:23;;;;;;;;;;;25.40;99.90;;;;;;5053249;28;20021;-51
2023/10/04 08:39:49;;;;;;;11.20;8.45;;;25.40;99.90;;;;;;5052545;28;19951;-50
2023/10/04 08:42:15;;;;;;;13.52;11.40;;;25.40;99.90;;;;;;5052620;28;20053;-51
2023/10/04 08:44:40;;;;;;;9.30;8.35;;;25.40;99.90;;;;;;5052403;28;20017;-51
2023/10/04 08:47:08;;;;;;;18.75;14.30;;;25.40;99.90;;;;;;5052746;28;20013;-51
2023/10/04 08:49:47;;;;;;;11.60;8.13;;;25.40;99.90;;;;;;5052504;28;20025;-51
2023/10/04 08:52:35;;;;;;;8.65;5.55;;;25.40;99.90;;;;;;5052658;28;20461;-51
2023/10/04 08:55:07;;;;;;;8.35;6.22;;;25.40;99.90;;;;;;5052277;28;20060;-51
2023/10/04 08:57:39;;;;;;;7.07;6.38;;;25.40;99.90;;;;;;5052392;28;20020;-52
2023/10/04 09:00:15;;;;;;;9.48;6.80;;;25.40;99.90;;;;;;5052410;28;20083;-51
2023/10/04 09:02:47;;;;;;;10.13;7.13;;;25.50;99.90;;;;;;5052082;28;20037;-52
2023/10/04 09:05:16;;;;;;;10.88;9.77;;;25.50;99.90;;;;;;5051942;28;20096;-51
2023/10/04 09:07:45;;;;;;;15.23;9.57;;;25.50;99.90;;;;;;5052293;28;20025;-51
2023/10/04 09:10:16;;;;;;;9.82;8.15;;;25.60;99.90;;;;;;5052292;28;20055;-51
2023/10/04 09:12:43;;;;;;;9.85;8.65;;;25.60;99.90;;;;;;5052203;28;20025;-51
2023/10/04 09:15:13;;;;;;;9.55;6.82;;;25.60;99.90;;;;;;5052196;28;20055;-52
2023/10/04 09:17:47;;;;;;;10.90;7.18;;;25.60;99.90;;;;;;5052263;28;20017;-52
2023/10/04 09:20:17;;;;;;;12.18;8.45;;;25.70;99.90;;;;;;5051896;28;20029;-52
2023/10/04 09:22:44;;;;;;;11.10;7.93;;;25.70;99.90;;;;;;5051743;28;20473;-51
2023/10/04 09:25:10;;;;;;;8.68;6.93;;;25.70;99.90;;;;;;5052110;28;20027;-51
2023/10/04 09:27:41;;;;;;;13.52;8.57;;;25.70;99.90;;;;;;5051980;28;20013;-52
2023/10/04 09:30:23;;;;;;;9.10;7.13;;;25.70;99.90;;;;;;5052123;28;20037;-51
2023/10/04 09:32:51;;;;;;;12.13;8.75;;;25.70;99.90;;;;;;5051651;28;20100;-52
2023/10/04 09:35:20;;;;;;;8.98;7.55;;;25.80;99.90;;;;;;5051582;28;20143;-52
2023/10/04 09:37:50;;;;;;;7.40;6.57;;;25.80;99.90;;;;;;5051686;28;20036;-52
2023/10/04 09:40:17;;;;;;;10.55;7.18;;;25.90;99.90;;;;;;5051653;28;20040;-52
2023/10/04 09:42:53;;;;;;;10.52;6.60;;;25.90;99.90;;;;;;5051575;28;20017;-52
2023/10/04 09:45:26;;;;;;;11.65;8.48;;;25.90;99.90;;;;;;5051746;28;20024;-52
2023/10/04 09:47:55;;;;;;;8.75;7.80;;;25.90;99.90;;;;;;5034361;28;20021;-52
2023/10/04 09:50:23;;;;;;;9.70;8.00;;;26.00;99.90;;;;;;5051617;28;20560;-51
2023/10/04 09:52:50;;;;;;;10.32;7.35;;;26.00;99.90;;;;;;5051517;28;20113;-52
2023/10/04 09:55:16;;;;;;;11.60;7.85;;;26.00;99.90;;;;;;5051495;28;20029;-52
2023/10/04 09:57:44;;;;;;;10.45;7.68;;;26.00;99.90;;;;;;5051622;28;20354;-52
2023/10/04 10:00:22;;;;;;;11.13;8.77;;;26.00;99.90;;;;;;5051574;28;20029;-52
2023/10/04 10:02:52;;;;;;;11.68;7.63;;;26.00;99.90;;;;;;5051568;28;20382;-52
2023/10/04 10:05:28;;;;;;;9.73;7.82;;;26.10;99.90;;;;;;5051213;28;20017;-52
2023/10/04 10:08:03;;;;;;;7.85;6.80;;;26.10;99.90;;;;;;5051320;28;20571;-51
2023/10/04 10:10:29;;;;;;;9.80;6.40;;;26.10;99.90;;;;;;5051310;28;20385;-51
2023/10/04 10:12:55;;;;;;;12.20;6.65;;;26.10;99.90;;;;;;5051388;28;20133;-52
2023/10/04 10:15:21;;;;;;;8.63;6.40;;;26.20;99.90;;;;;;5051247;28;20029;-52
2023/10/04 10:17:48;;;;;;;11.10;6.13;;;26.20;99.90;;;;;;5051495;28;20074;-52
2023/10/04 10:20:16;;;;;;;10.32;6.55;;;26.30;99.90;;;;;;5051381;28;20477;-52
2023/10/04 10:22:57;;;;;;;;;;;26.40;99.90;;;;;;5051667;28;20028;-52
2023/10/04 10:25:25;;;;;;;7.40;6.30;;;26.50;99.90;;;;;;5051320;28;20369;-52
2023/10/04 10:27:55;;;;;;;9.65;7.18;;;26.70;99.90;;;;;;5051201;28;20052;-52
2023/10/04 10:30:23;;;;;;;8.15;5.68;;;26.70;99.90;;;;;;5051411;28;20021;-52
2023/10/04 10:32:50;;;;;;;;;;;26.90;99.90;;;;;;5051444;28;20075;-52
2023/10/04 10:35:48;;;;;;;7.68;6.10;;;27.00;99.90;;;;;;5051178;28;19920;-52
2023/10/04 10:38:45;;;;;;;7.50;5.68;;;27.00;99.90;;;;;;5051254;28;20013;-52
2023/10/04 10:41:29;;;;;;;6.22;5.63;;;27.20;99.90;;;;;;5050991;28;20273;-53
2023/10/04 10:44:18;;;;;;;9.63;5.63;;;27.20;99.90;;;;;;5051072;28;20025;-52
2023/10/04 10:47:15;;;;;;;10.63;5.18;;;27.30;99.90;;;;;;5051329;28;20538;-52
2023/10/04 10:49:44;;;;;;;6.95;6.00;;;27.40;99.90;;;;;;5029402;28;20037;-52
2023/10/04 10:52:25;;;;;;;8.25;5.20;;;27.40;99.90;;;;;;5054523;28;20070;-52
2023/10/04 10:54:52;;;;;;;8.68;5.93;;;27.40;99.90;;;;;;5054581;28;20036;-51
2023/10/04 10:57:25;;;;;;;12.32;6.43;;;27.40;99.90;;;;;;5037036;28;20029;-51
2023/10/04 10:59:56;;;;;;;8.30;6.22;;;27.50;99.90;;;;;;5054493;28;20051;-51
2023/10/04 11:02:24;;;;;;;11.27;5.82;;;27.50;99.90;;;;;;5054410;28;20123;-52
2023/10/04 11:04:51;;;;;;;7.20;5.57;;;27.50;99.90;;;;;;5054465;28;20116;-52
2023/10/04 11:07:21;;;;;;;11.05;6.30;;;27.40;99.90;;;;;;5054334;28;20017;-53
2023/10/04 11:09:51;;;;;;;10.85;6.57;;;27.50;99.90;;;;;;5054347;28;20163;-52
2023/10/04 11:12:23;;;;;;;7.80;5.50;;;27.50;99.90;;;;;;5053987;28;20017;-52
2023/10/04 11:14:50;;;;;;;8.30;5.50;;;27.50;99.90;;;;;;5037081;28;20044;-52
2023/10/04 11:17:17;;;;;;;8.35;5.95;;;27.50;99.90;;;;;;5054172;28;20036;-53
2023/10/04 11:19:44;;;;;;;;;;;27.50;99.90;;;;;;5054648;28;20048;-52
2023/10/04 11:22:12;;;;;;;8.57;5.68;;;27.50;99.90;;;;;;5053827;28;20367;-53
2023/10/04 11:24:41;;;;;;;7.07;5.40;;;27.50;99.90;;;;;;5054286;28;20029;-52
2023/10/04 11:27:11;;;;;;;9.48;4.13;;;27.50;99.90;;;;;;5036225;28;20017;-52
2023/10/04 11:29:38;;;;;;;5.53;4.25;;;27.50;99.90;;;;;;5053993;28;20017;-52
2023/10/04 11:32:06;;;;;;;9.05;4.55;;;27.50;99.90;;;;;;5053898;28;20457;-51
2023/10/04 11:34:36;;;;;;;7.95;4.68;;;27.50;99.90;;;;;;5053751;28;20473;-52
2023/10/04 11:37:03;;;;;;;8.00;4.70;;;27.50;99.90;;;;;;5053913;28;20346;-52
2023/10/04 11:39:34;;;;;;;9.13;5.60;;;27.60;99.90;;;;;;5053514;28;20415;-52
2023/10/04 11:42:04;;;;;;;9.82;5.43;;;27.60;99.90;;;;;;5053678;28;20496;-52
2023/10/04 11:44:33;;;;;;;7.13;5.35;;;27.60;99.90;;;;;;5053559;28;20114;-53
2023/10/04 11:46:59;;;;;;;7.35;4.90;;;27.70;99.90;;;;;;5053689;28;20017;-52
2023/10/04 11:49:29;;;;;;;6.95;4.70;;;27.80;99.90;;;;;;5035748;28;20032;-52
2023/10/04 11:52:00;;;;;;;6.57;3.85;;;27.90;99.90;;;;;;5053521;28;20025;-52
2023/10/04 11:54:45;;;;;;;13.23;5.07;;;28.00;99.90;;;;;;5053448;28;20045;-52
2023/10/04 11:57:11;;;;;;;8.60;4.68;;;28.20;99.90;;;;;;5041973;28;20095;-52
2023/10/04 11:59:39;;;;;;;6.28;4.57;;;28.20;99.90;;;;;;5053361;28;20044;-52
2023/10/04 12:02:06;;;;;;;6.95;4.40;;;28.30;99.90;;;;;;5053425;28;20045;-53
2023/10/04 12:04:33;;;;;;;8.70;3.88;;;28.40;99.90;;;;;;5053040;28;20450;-52
2023/10/04 12:07:01;;;;;;;7.60;4.20;;;28.40;99.90;;;;;;5053070;28;20036;-50
2023/10/04 12:09:30;;;;;;;8.27;4.75;;;28.40;99.90;;;;;;5053038;28;20032;-51
2023/10/04 12:11:57;;;;;;;6.32;4.68;;;28.50;99.90;;;;;;5052950;28;20036;-51
2023/10/04 12:14:23;;;;;;;9.03;4.73;;;28.60;99.90;;;;;;5052965;28;20385;-51
2023/10/04 12:16:49;;;;;;;8.52;4.47;;;28.70;99.90;;;;;;5052968;28;20263;-51
2023/10/04 12:19:16;;;;;;;5.77;4.00;;;28.80;99.90;;;;;;5052960;28;20045;-51
2023/10/04 12:21:43;;;;;;;5.45;4.30;;;28.90;99.90;;;;;;5035041;28;20049;-50
2023/10/04 12:24:10;;;;;;;10.35;4.45;;;29.00;99.90;;;;;;5053029;28;20522;-50
2023/10/04 12:26:36;;;;;;;8.13;4.60;;;29.00;99.90;;;;;;5053133;28;20021;-50
2023/10/04 12:29:03;;;;;;;9.25;4.70;;;29.20;99.90;;;;;;5034700;28;20094;-51
2023/10/04 12:31:30;;;;;;;5.18;4.10;;;29.20;99.90;;;;;;5052643;28;20019;-52
2023/10/04 12:33:56;;;;;;;5.73;3.83;;;29.30;99.90;;;;;;5052444;28;20040;-54
2023/10/04 12:36:25;;;;;;;7.72;4.07;;;29.30;99.90;;;;;;5052485;28;20025;-51
2023/10/04 12:38:51;;;;;;;7.07;4.68;;;29.40;99.90;;;;;;5052601;28;20017;-52
2023/10/04 12:41:18;;;;;;;8.27;5.07;;;29.50;99.90;;;;;;5052770;28;20043;-51
2023/10/04 12:43:44;;;;;;;8.75;4.43;;;29.50;99.90;;;;;;5052465;28;20056;-51
2023/10/04 12:46:10;;;;;;;6.28;4.07;;;29.60;99.90;;;;;;5052269;28;20477;-52
2023/10/04 12:48:36;;;;;;;8.30;4.45;;;29.60;99.90;;;;;;5034623;28;20025;-51
2023/10/04 12:51:02;;;;;;;10.55;4.35;;;29.70;99.90;;;;;;5052296;28;20100;-51
2023/10/04 12:53:28;;;;;;;6.03;4.07;;;29.70;99.90;;;;;;5038284;28;20029;-52